createdAt,value
2017-03-10T00:10:04.207Z,100
2017-03-10T00:20:15.372Z,100
2017-03-10T00:30:26.521Z,100
2017-03-10T00:40:37.638Z,100
2017-03-10T00:50:48.824Z,100
2017-03-10T01:01:00.013Z,100
2017-03-10T01:11:11.223Z,100
2017-03-10T01:21:22.388Z,100
2017-03-10T01:31:33.560Z,100
2017-03-10T01:41:44.761Z,100
2017-03-10T01:51:55.957Z,100
2017-03-10T02:02:07.137Z,100
2017-03-10T02:12:18.414Z,100
2017-03-10T02:22:29.566Z,100
2017-03-10T02:32:40.773Z,100
2017-03-10T02:42:51.914Z,100
2017-03-10T02:53:03.075Z,100
2017-03-10T03:03:14.264Z,100
2017-03-10T03:13:25.453Z,100
2017-03-10T03:23:36.643Z,100
2017-03-10T03:33:47.880Z,100
2017-03-10T03:43:59.110Z,100
2017-03-10T03:54:10.380Z,100
2017-03-10T04:04:21.746Z,100
2017-03-10T04:14:33.051Z,100
2017-03-10T04:24:44.399Z,100
2017-03-10T04:34:55.755Z,100
2017-03-10T04:45:07.126Z,100
2017-03-10T04:55:18.428Z,100
2017-03-10T05:05:29.881Z,100
2017-03-10T05:15:41.309Z,100
2017-03-10T05:25:52.690Z,100
2017-03-10T05:36:04.122Z,100
2017-03-10T05:46:15.382Z,100
2017-03-10T05:56:26.701Z,100
2017-03-10T06:06:37.996Z,100
2017-03-10T06:16:49.314Z,100
2017-03-10T06:27:00.553Z,100
2017-03-10T06:37:11.790Z,100
2017-03-10T06:47:23.085Z,100
2017-03-10T06:57:34.487Z,100
2017-03-10T07:07:45.633Z,100
2017-03-10T07:17:56.868Z,100
2017-03-10T07:28:08.113Z,100
2017-03-10T07:38:19.305Z,100
2017-03-10T07:48:30.389Z,100
2017-03-10T07:58:41.456Z,100
2017-03-10T08:08:52.513Z,100
2017-03-10T08:19:03.429Z,100
2017-03-10T08:29:14.250Z,100
2017-03-10T08:39:24.782Z,100
2017-03-10T08:49:35.414Z,100
2017-03-10T08:59:45.680Z,100
2017-03-10T09:09:55.977Z,100
2017-03-10T09:20:06.104Z,100
2017-03-10T09:30:16.065Z,100
2017-03-10T09:40:25.936Z,100
2017-03-10T09:50:35.631Z,96.8
2017-03-10T10:00:45.094Z,99
2017-03-10T10:21:04.208Z,96.5
2017-03-10T10:31:13.885Z,86.8
2017-03-10T10:41:23.140Z,85.8
2017-03-10T10:51:32.402Z,86.7
2017-03-10T11:01:41.867Z,88.7
2017-03-10T11:11:51.418Z,82.7
2017-03-10T11:22:00.904Z,79
2017-03-10T11:32:10.442Z,76.1
2017-03-10T11:42:19.682Z,74.6
2017-03-10T11:52:29.012Z,68.4
2017-03-10T12:02:38.433Z,65.1
2017-03-10T12:22:56.309Z,59.4
2017-03-10T12:33:05.257Z,62.6
2017-03-10T12:43:14.143Z,64.6
2017-03-10T12:53:23.283Z,63
2017-03-10T13:03:33.243Z,64.2
2017-03-10T13:13:42.233Z,59
2017-03-10T13:23:51.644Z,62.3
2017-03-10T13:34:01.403Z,61.6
2017-03-10T13:44:11.061Z,55.9
2017-03-10T13:54:20.704Z,59.1
2017-03-10T14:04:29.551Z,56.6
2017-03-10T14:14:39.253Z,58.4
2017-03-10T14:24:47.716Z,59.5
2017-03-10T14:34:57.283Z,60.3
2017-03-10T14:45:06.932Z,58.4
2017-03-10T14:55:16.889Z,60.1
2017-03-10T15:05:26.733Z,61.3
2017-03-10T15:15:36.487Z,62
2017-03-10T15:25:46.426Z,60.9
2017-03-10T15:35:56.050Z,60.5
2017-03-10T15:46:05.763Z,59.5
2017-03-10T15:56:15.757Z,60
2017-03-10T16:06:25.297Z,60.3
2017-03-10T16:16:35.335Z,61.1
2017-03-10T16:26:45.427Z,60.6
2017-03-10T16:36:55.642Z,61.5
2017-03-10T16:47:05.764Z,62.5
2017-03-10T16:57:16.083Z,62.8
2017-03-10T17:07:26.426Z,62.9
2017-03-10T17:17:36.784Z,64.2
2017-03-10T17:27:47.380Z,64.9
2017-03-10T17:37:57.924Z,66.1
2017-03-10T17:48:08.903Z,67.1
2017-03-10T17:58:19.510Z,69.4
2017-03-10T18:08:30.569Z,67.9
2017-03-10T18:18:41.451Z,67
2017-03-10T18:28:52.308Z,67.2
2017-03-10T18:39:03.260Z,70
2017-03-10T18:49:14.329Z,71.2
2017-03-10T18:59:25.279Z,72.2
2017-03-10T19:09:36.348Z,68.9
2017-03-10T19:19:47.345Z,67.5
2017-03-10T19:29:58.352Z,68.1
2017-03-10T19:40:09.309Z,69.3
2017-03-10T19:50:20.372Z,70.5
2017-03-10T20:00:31.264Z,71.8
2017-03-10T20:10:42.255Z,73.7
2017-03-10T20:20:53.482Z,71.8
2017-03-10T20:31:04.714Z,72.4
2017-03-10T20:41:15.342Z,69.2
2017-03-10T20:51:26.378Z,70.2
2017-03-10T21:01:37.149Z,71.5
2017-03-10T21:11:48.085Z,69.2
2017-03-10T21:21:58.998Z,71.7
2017-03-10T21:32:10.010Z,72.2
2017-03-10T21:42:20.957Z,72.3
2017-03-10T21:52:32.044Z,73.2
2017-03-10T22:02:43.008Z,74.4
2017-03-10T22:12:54.111Z,74.1
2017-03-10T22:23:05.047Z,75.3
2017-03-10T22:33:16.538Z,74.2
2017-03-10T22:43:27.090Z,73.8
2017-03-10T22:53:38.399Z,73.3
2017-03-10T23:03:49.132Z,74.2
2017-03-10T23:14:00.143Z,74.5
2017-03-10T23:24:11.109Z,74.8
2017-03-10T23:34:22.542Z,75.9
2017-03-10T23:44:33.485Z,75.5
2017-03-10T23:54:44.297Z,76.3
